sensor_id;sensor_type;location;lat;lon;timestamp;P1;durP1;ratioP1;P2;durP2;ratioP2
56435;SDS011;42335;44.872;20.658;2023-12-29T08:33:45;102.38;;;65.97;;
56435;SDS011;42335;44.872;20.658;2023-12-29T08:36:11;93.68;;;63.13;;
56435;SDS011;42335;44.872;20.658;2023-12-29T08:38:38;102.57;;;65.20;;
56435;SDS011;42335;44.872;20.658;2023-12-29T08:41:03;92.55;;;61.83;;
56435;SDS011;42335;44.872;20.658;2023-12-29T08:43:29;85.38;;;57.58;;
56435;SDS011;42335;44.872;20.658;2023-12-29T08:45:55;86.30;;;57.28;;
56435;SDS011;42335;44.872;20.658;2023-12-29T08:48:22;89.68;;;56.67;;
56435;SDS011;42335;44.872;20.658;2023-12-29T08:50:49;84.53;;;57.53;;
56435;SDS011;42335;44.872;20.658;2023-12-29T08:53:15;78.75;;;57.38;;
56435;SDS011;42335;44.872;20.658;2023-12-29T08:55:41;79.28;;;54.15;;
56435;SDS011;42335;44.872;20.658;2023-12-29T08:58:07;83.60;;;58.10;;
56435;SDS011;42335;44.872;20.658;2023-12-29T09:00:33;72.70;;;52.42;;
56435;SDS011;42335;44.872;20.658;2023-12-29T09:02:59;70.82;;;53.60;;
56435;SDS011;42335;44.872;20.658;2023-12-29T09:05:25;67.30;;;50.88;;
56435;SDS011;42335;44.872;20.658;2023-12-29T09:07:50;64.95;;;50.72;;
56435;SDS011;42335;44.872;20.658;2023-12-29T09:10:16;69.82;;;50.47;;
56435;SDS011;42335;44.872;20.658;2023-12-29T09:12:42;70.65;;;50.30;;
56435;SDS011;42335;44.872;20.658;2023-12-29T09:15:09;67.32;;;50.55;;
56435;SDS011;42335;44.872;20.658;2023-12-29T09:17:35;73.40;;;51.92;;
56435;SDS011;42335;44.872;20.658;2023-12-29T09:20:01;77.88;;;53.67;;
56435;SDS011;42335;44.872;20.658;2023-12-29T09:22:28;70.80;;;51.67;;
56435;SDS011;42335;44.872;20.658;2023-12-29T09:24:54;65.47;;;49.25;;
56435;SDS011;42335;44.872;20.658;2023-12-29T09:27:20;66.72;;;49.90;;
56435;SDS011;42335;44.872;20.658;2023-12-29T09:29:46;66.55;;;49.35;;
56435;SDS011;42335;44.872;20.658;2023-12-29T09:32:12;67.43;;;48.33;;
56435;SDS011;42335;44.872;20.658;2023-12-29T09:34:38;58.03;;;43.95;;
56435;SDS011;42335;44.872;20.658;2023-12-29T09:37:04;63.30;;;42.92;;
56435;SDS011;42335;44.872;20.658;2023-12-29T09:39:29;56.45;;;43.35;;
56435;SDS011;42335;44.872;20.658;2023-12-29T09:41:57;60.67;;;43.75;;
56435;SDS011;42335;44.872;20.658;2023-12-29T09:44:27;61.60;;;43.15;;
56435;SDS011;42335;44.872;20.658;2023-12-29T09:46:54;48.33;;;39.88;;
56435;SDS011;42335;44.872;20.658;2023-12-29T09:49:20;54.63;;;38.25;;
56435;SDS011;42335;44.872;20.658;2023-12-29T09:51:46;51.83;;;36.33;;
56435;SDS011;42335;44.872;20.658;2023-12-29T09:54:13;47.75;;;34.88;;
56435;SDS011;42335;44.872;20.658;2023-12-29T09:56:40;49.90;;;38.35;;
56435;SDS011;42335;44.872;20.658;2023-12-29T09:59:08;48.40;;;38.55;;
56435;SDS011;42335;44.872;20.658;2023-12-29T10:01:36;50.38;;;36.40;;
56435;SDS011;42335;44.872;20.658;2023-12-29T10:04:04;50.55;;;37.75;;
56435;SDS011;42335;44.872;20.658;2023-12-29T10:06:31;49.67;;;37.42;;
56435;SDS011;42335;44.872;20.658;2023-12-29T10:09:02;47.92;;;35.33;;
56435;SDS011;42335;44.872;20.658;2023-12-29T10:11:30;46.05;;;35.55;;
56435;SDS011;42335;44.872;20.658;2023-12-29T10:14:02;47.30;;;36.08;;
56435;SDS011;42335;44.872;20.658;2023-12-29T10:16:38;44.53;;;34.90;;
56435;SDS011;42335;44.872;20.658;2023-12-29T10:24:40;43.80;;;35.80;;
56435;SDS011;42335;44.872;20.658;2023-12-29T10:27:08;45.95;;;34.78;;
56435;SDS011;42335;44.872;20.658;2023-12-29T10:29:34;47.58;;;36.60;;
56435;SDS011;42335;44.872;20.658;2023-12-29T10:32:03;51.60;;;35.13;;
56435;SDS011;42335;44.872;20.658;2023-12-29T10:34:28;47.92;;;34.92;;
56435;SDS011;42335;44.872;20.658;2023-12-29T10:36:58;40.08;;;35.45;;
56435;SDS011;42335;44.872;20.658;2023-12-29T10:39:26;44.80;;;35.67;;
56435;SDS011;42335;44.872;20.658;2023-12-29T10:42:05;41.58;;;31.50;;
56435;SDS011;42335;44.872;20.658;2023-12-29T10:44:34;45.47;;;34.72;;
56435;SDS011;42335;44.872;20.658;2023-12-29T10:47:13;44.78;;;34.17;;
56435;SDS011;42335;44.872;20.658;2023-12-29T10:49:40;46.08;;;35.05;;
56435;SDS011;42335;44.872;20.658;2023-12-29T10:52:15;45.35;;;35.83;;
56435;SDS011;42335;44.872;20.658;2023-12-29T10:54:42;46.33;;;34.50;;
56435;SDS011;42335;44.872;20.658;2023-12-29T10:57:09;46.50;;;35.05;;
56435;SDS011;42335;44.872;20.658;2023-12-29T10:59:37;47.88;;;36.03;;
56435;SDS011;42335;44.872;20.658;2023-12-29T11:02:03;43.72;;;35.78;;
56435;SDS011;42335;44.872;20.658;2023-12-29T11:04:29;48.47;;;34.42;;
56435;SDS011;42335;44.872;20.658;2023-12-29T11:06:55;50.65;;;35.53;;
56435;SDS011;42335;44.872;20.658;2023-12-29T11:09:30;42.08;;;32.38;;
56435;SDS011;42335;44.872;20.658;2023-12-29T11:11:59;48.22;;;34.20;;
56435;SDS011;42335;44.872;20.658;2023-12-29T11:14:27;49.67;;;34.03;;
56435;SDS011;42335;44.872;20.658;2023-12-29T11:16:54;44.88;;;33.70;;
56435;SDS011;42335;44.872;20.658;2023-12-29T11:19:21;46.13;;;34.85;;
56435;SDS011;42335;44.872;20.658;2023-12-29T11:21:57;43.10;;;34.95;;
56435;SDS011;42335;44.872;20.658;2023-12-29T11:24:23;42.72;;;34.40;;
56435;SDS011;42335;44.872;20.658;2023-12-29T11:26:49;42.63;;;35.30;;
56435;SDS011;42335;44.872;20.658;2023-12-29T11:29:16;47.53;;;36.03;;
56435;SDS011;42335;44.872;20.658;2023-12-29T11:31:42;48.08;;;34.60;;
56435;SDS011;42335;44.872;20.658;2023-12-29T11:34:34;44.35;;;33.50;;
56435;SDS011;42335;44.872;20.658;2023-12-29T11:39:52;46.72;;;36.75;;
56435;SDS011;42335;44.872;20.658;2023-12-29T11:42:35;41.30;;;33.70;;
56435;SDS011;42335;44.872;20.658;2023-12-29T11:48:04;43.47;;;32.25;;
56435;SDS011;42335;44.872;20.658;2023-12-29T11:50:34;42.58;;;32.33;;
56435;SDS011;42335;44.872;20.658;2023-12-29T11:53:32;45.45;;;31.33;;
56435;SDS011;42335;44.872;20.658;2023-12-29T11:55:59;40.70;;;33.10;;
56435;SDS011;42335;44.872;20.658;2023-12-29T11:58:26;41.65;;;32.22;;
56435;SDS011;42335;44.872;20.658;2023-12-29T12:00:56;43.65;;;32.88;;
56435;SDS011;42335;44.872;20.658;2023-12-29T12:05:51;44.28;;;32.30;;
56435;SDS011;42335;44.872;20.658;2023-12-29T12:08:32;41.90;;;30.75;;
56435;SDS011;42335;44.872;20.658;2023-12-29T12:13:53;47.25;;;33.63;;
56435;SDS011;42335;44.872;20.658;2023-12-29T12:19:10;50.10;;;37.17;;
56435;SDS011;42335;44.872;20.658;2023-12-29T12:21:36;55.70;;;37.13;;
56435;SDS011;42335;44.872;20.658;2023-12-29T12:24:06;55.75;;;37.08;;
56435;SDS011;42335;44.872;20.658;2023-12-29T12:26:32;60.03;;;39.40;;
56435;SDS011;42335;44.872;20.658;2023-12-29T12:28:58;51.45;;;39.05;;
56435;SDS011;42335;44.872;20.658;2023-12-29T12:31:25;66.15;;;41.58;;
56435;SDS011;42335;44.872;20.658;2023-12-29T12:33:55;60.55;;;42.65;;
56435;SDS011;42335;44.872;20.658;2023-12-29T12:36:21;57.97;;;42.45;;
56435;SDS011;42335;44.872;20.658;2023-12-29T12:38:51;60.70;;;42.90;;
56435;SDS011;42335;44.872;20.658;2023-12-29T12:41:17;62.65;;;42.30;;
56435;SDS011;42335;44.872;20.658;2023-12-29T12:43:45;60.05;;;44.90;;
56435;SDS011;42335;44.872;20.658;2023-12-29T12:46:34;64.28;;;44.28;;
56435;SDS011;42335;44.872;20.658;2023-12-29T12:49:03;62.45;;;41.88;;
56435;SDS011;42335;44.872;20.658;2023-12-29T12:51:30;65.80;;;45.30;;
56435;SDS011;42335;44.872;20.658;2023-12-29T12:53:57;62.75;;;43.97;;
56435;SDS011;42335;44.872;20.658;2023-12-29T12:56:24;60.80;;;43.33;;
56435;SDS011;42335;44.872;20.658;2023-12-29T12:58:54;70.20;;;45.92;;
56435;SDS011;42335;44.872;20.658;2023-12-29T13:01:21;73.88;;;45.78;;
56435;SDS011;42335;44.872;20.658;2023-12-29T13:03:47;70.45;;;46.90;;
56435;SDS011;42335;44.872;20.658;2023-12-29T13:06:13;73.80;;;46.20;;
56435;SDS011;42335;44.872;20.658;2023-12-29T13:08:41;67.20;;;43.80;;
56435;SDS011;42335;44.872;20.658;2023-12-29T13:11:08;65.50;;;46.85;;
56435;SDS011;42335;44.872;20.658;2023-12-29T13:13:41;65.15;;;44.35;;
56435;SDS011;42335;44.872;20.658;2023-12-29T13:18:33;70.30;;;50.33;;
56435;SDS011;42335;44.872;20.658;2023-12-29T13:21:00;69.82;;;47.92;;
56435;SDS011;42335;44.872;20.658;2023-12-29T13:23:27;76.28;;;50.00;;
56435;SDS011;42335;44.872;20.658;2023-12-29T13:25:54;65.35;;;47.47;;
56435;SDS011;42335;44.872;20.658;2023-12-29T13:28:25;75.93;;;50.55;;
56435;SDS011;42335;44.872;20.658;2023-12-29T13:30:52;84.75;;;51.28;;
56435;SDS011;42335;44.872;20.658;2023-12-29T13:36:10;79.38;;;51.92;;
56435;SDS011;42335;44.872;20.658;2023-12-29T13:38:43;70.60;;;48.08;;
56435;SDS011;42335;44.872;20.658;2023-12-29T13:41:15;59.92;;;45.05;;
56435;SDS011;42335;44.872;20.658;2023-12-29T13:43:42;77.05;;;49.88;;
56435;SDS011;42335;44.872;20.658;2023-12-29T13:46:11;60.83;;;45.58;;
56435;SDS011;42335;44.872;20.658;2023-12-29T13:48:38;66.13;;;47.33;;
56435;SDS011;42335;44.872;20.658;2023-12-29T13:51:05;68.65;;;47.47;;
56435;SDS011;42335;44.872;20.658;2023-12-29T13:53:31;78.28;;;50.05;;
56435;SDS011;42335;44.872;20.658;2023-12-29T13:56:07;76.93;;;51.17;;
56435;SDS011;42335;44.872;20.658;2023-12-29T13:58:37;72.53;;;50.85;;
56435;SDS011;42335;44.872;20.658;2023-12-29T14:01:04;73.85;;;47.83;;
56435;SDS011;42335;44.872;20.658;2023-12-29T14:03:51;73.07;;;49.53;;
56435;SDS011;42335;44.872;20.658;2023-12-29T14:06:28;71.57;;;50.53;;
56435;SDS011;42335;44.872;20.658;2023-12-29T14:09:01;79.05;;;53.67;;
56435;SDS011;42335;44.872;20.658;2023-12-29T14:11:27;77.70;;;51.42;;
56435;SDS011;42335;44.872;20.658;2023-12-29T14:13:56;77.13;;;51.53;;
56435;SDS011;42335;44.872;20.658;2023-12-29T14:16:21;73.43;;;49.05;;
56435;SDS011;42335;44.872;20.658;2023-12-29T14:18:55;77.40;;;50.75;;
56435;SDS011;42335;44.872;20.658;2023-12-29T14:21:28;73.80;;;51.08;;
56435;SDS011;42335;44.872;20.658;2023-12-29T14:29:18;77.22;;;51.50;;
56435;SDS011;42335;44.872;20.658;2023-12-29T14:31:45;75.63;;;52.30;;
56435;SDS011;42335;44.872;20.658;2023-12-29T14:34:16;76.85;;;52.30;;
56435;SDS011;42335;44.872;20.658;2023-12-29T14:36:42;76.45;;;51.17;;
56435;SDS011;42335;44.872;20.658;2023-12-29T14:39:08;80.82;;;54.50;;
56435;SDS011;42335;44.872;20.658;2023-12-29T14:41:35;77.85;;;53.55;;
56435;SDS011;42335;44.872;20.658;2023-12-29T14:44:01;79.53;;;56.95;;
56435;SDS011;42335;44.872;20.658;2023-12-29T14:46:27;86.22;;;58.08;;
56435;SDS011;42335;44.872;20.658;2023-12-29T14:48:53;94.38;;;59.88;;
56435;SDS011;42335;44.872;20.658;2023-12-29T14:51:21;86.43;;;58.55;;
56435;SDS011;42335;44.872;20.658;2023-12-29T14:53:47;84.18;;;58.70;;
56435;SDS011;42335;44.872;20.658;2023-12-29T14:56:14;86.43;;;60.72;;
56435;SDS011;42335;44.872;20.658;2023-12-29T14:58:41;85.03;;;58.08;;
56435;SDS011;42335;44.872;20.658;2023-12-29T15:01:11;90.50;;;60.05;;
56435;SDS011;42335;44.872;20.658;2023-12-29T15:03:37;96.68;;;59.65;;
56435;SDS011;42335;44.872;20.658;2023-12-29T15:06:03;88.75;;;58.50;;
56435;SDS011;42335;44.872;20.658;2023-12-29T15:08:29;117.63;;;60.80;;
56435;SDS011;42335;44.872;20.658;2023-12-29T15:11:03;102.20;;;58.08;;
56435;SDS011;42335;44.872;20.658;2023-12-29T15:13:30;95.50;;;61.95;;
56435;SDS011;42335;44.872;20.658;2023-12-29T15:15:57;109.93;;;65.28;;
56435;SDS011;42335;44.872;20.658;2023-12-29T15:18:25;117.00;;;74.47;;
56435;SDS011;42335;44.872;20.658;2023-12-29T15:20:51;108.88;;;72.18;;
56435;SDS011;42335;44.872;20.658;2023-12-29T15:23:17;132.48;;;73.95;;
56435;SDS011;42335;44.872;20.658;2023-12-29T15:25:42;141.90;;;86.00;;
56435;SDS011;42335;44.872;20.658;2023-12-29T15:28:08;148.95;;;93.70;;
56435;SDS011;42335;44.872;20.658;2023-12-29T15:30:34;151.63;;;91.03;;
56435;SDS011;42335;44.872;20.658;2023-12-29T15:33:00;144.00;;;88.03;;
56435;SDS011;42335;44.872;20.658;2023-12-29T15:35:25;124.68;;;81.30;;
56435;SDS011;42335;44.872;20.658;2023-12-29T15:37:51;123.38;;;81.35;;
56435;SDS011;42335;44.872;20.658;2023-12-29T15:40:18;136.40;;;81.30;;
56435;SDS011;42335;44.872;20.658;2023-12-29T15:42:44;125.25;;;80.88;;
56435;SDS011;42335;44.872;20.658;2023-12-29T15:45:10;137.98;;;81.10;;
56435;SDS011;42335;44.872;20.658;2023-12-29T15:47:36;114.95;;;76.75;;
56435;SDS011;42335;44.872;20.658;2023-12-29T15:50:01;125.47;;;77.60;;
56435;SDS011;42335;44.872;20.658;2023-12-29T15:52:30;112.93;;;76.93;;
56435;SDS011;42335;44.872;20.658;2023-12-29T15:54:56;122.45;;;81.68;;
56435;SDS011;42335;44.872;20.658;2023-12-29T15:57:22;121.85;;;79.53;;
56435;SDS011;42335;44.872;20.658;2023-12-29T15:59:47;126.47;;;81.63;;
56435;SDS011;42335;44.872;20.658;2023-12-29T16:05:24;158.63;;;113.25;;
56435;SDS011;42335;44.872;20.658;2023-12-29T16:07:50;198.05;;;141.60;;
56435;SDS011;42335;44.872;20.658;2023-12-29T16:10:16;271.13;;;170.32;;
56435;SDS011;42335;44.872;20.658;2023-12-29T16:12:42;131.85;;;89.63;;
56435;SDS011;42335;44.872;20.658;2023-12-29T16:15:08;110.40;;;74.90;;
56435;SDS011;42335;44.872;20.658;2023-12-29T16:17:35;112.13;;;74.93;;
56435;SDS011;42335;44.872;20.658;2023-12-29T16:20:02;118.18;;;79.05;;
56435;SDS011;42335;44.872;20.658;2023-12-29T16:22:28;128.60;;;84.60;;
56435;SDS011;42335;44.872;20.658;2023-12-29T16:24:54;140.32;;;95.18;;
56435;SDS011;42335;44.872;20.658;2023-12-29T16:27:19;159.45;;;104.20;;
56435;SDS011;42335;44.872;20.658;2023-12-29T16:29:45;155.02;;;105.78;;
56435;SDS011;42335;44.872;20.658;2023-12-29T16:32:13;172.98;;;112.45;;
56435;SDS011;42335;44.872;20.658;2023-12-29T16:34:47;170.85;;;114.30;;
56435;SDS011;42335;44.872;20.658;2023-12-29T16:37:15;166.70;;;113.72;;
56435;SDS011;42335;44.872;20.658;2023-12-29T16:39:41;181.73;;;127.45;;
56435;SDS011;42335;44.872;20.658;2023-12-29T16:42:07;189.20;;;131.40;;
56435;SDS011;42335;44.872;20.658;2023-12-29T16:44:33;200.65;;;134.73;;
56435;SDS011;42335;44.872;20.658;2023-12-29T16:46:59;216.85;;;138.18;;
56435;SDS011;42335;44.872;20.658;2023-12-29T16:49:24;215.20;;;136.82;;
56435;SDS011;42335;44.872;20.658;2023-12-29T16:51:50;200.57;;;132.13;;
56435;SDS011;42335;44.872;20.658;2023-12-29T16:54:16;192.13;;;125.25;;
56435;SDS011;42335;44.872;20.658;2023-12-29T16:56:41;202.77;;;129.88;;
56435;SDS011;42335;44.872;20.658;2023-12-29T16:59:07;194.63;;;129.05;;
56435;SDS011;42335;44.872;20.658;2023-12-29T17:01:33;195.13;;;129.75;;
56435;SDS011;42335;44.872;20.658;2023-12-29T17:03:59;182.80;;;114.32;;
56435;SDS011;42335;44.872;20.658;2023-12-29T17:06:25;165.23;;;110.20;;
56435;SDS011;42335;44.872;20.658;2023-12-29T17:08:51;171.93;;;104.13;;
56435;SDS011;42335;44.872;20.658;2023-12-29T17:11:17;151.35;;;98.45;;
56435;SDS011;42335;44.872;20.658;2023-12-29T17:13:43;150.57;;;95.82;;
56435;SDS011;42335;44.872;20.658;2023-12-29T17:16:09;146.75;;;92.18;;
56435;SDS011;42335;44.872;20.658;2023-12-29T17:18:34;149.55;;;93.00;;
56435;SDS011;42335;44.872;20.658;2023-12-29T17:21:01;152.77;;;97.38;;
56435;SDS011;42335;44.872;20.658;2023-12-29T17:23:29;152.30;;;97.47;;
56435;SDS011;42335;44.872;20.658;2023-12-29T17:25:54;166.20;;;97.55;;
56435;SDS011;42335;44.872;20.658;2023-12-29T17:28:20;164.95;;;99.85;;
56435;SDS011;42335;44.872;20.658;2023-12-29T17:30:46;168.60;;;103.47;;
56435;SDS011;42335;44.872;20.658;2023-12-29T17:33:12;158.57;;;101.35;;
56435;SDS011;42335;44.872;20.658;2023-12-29T17:35:38;222.13;;;146.52;;
56435;SDS011;42335;44.872;20.658;2023-12-29T17:38:05;251.32;;;174.32;;
56435;SDS011;42335;44.872;20.658;2023-12-29T17:40:31;170.25;;;115.20;;
56435;SDS011;42335;44.872;20.658;2023-12-29T17:42:56;166.35;;;103.80;;
56435;SDS011;42335;44.872;20.658;2023-12-29T17:45:22;164.80;;;107.03;;
56435;SDS011;42335;44.872;20.658;2023-12-29T17:47:48;193.52;;;120.15;;
56435;SDS011;42335;44.872;20.658;2023-12-29T17:50:14;208.30;;;120.95;;
56435;SDS011;42335;44.872;20.658;2023-12-29T17:52:40;179.52;;;117.85;;
56435;SDS011;42335;44.872;20.658;2023-12-29T17:55:05;168.85;;;106.00;;
56435;SDS011;42335;44.872;20.658;2023-12-29T17:57:31;142.20;;;95.22;;
56435;SDS011;42335;44.872;20.658;2023-12-29T17:59:57;148.70;;;94.10;;
56435;SDS011;42335;44.872;20.658;2023-12-29T18:02:26;140.65;;;93.15;;
56435;SDS011;42335;44.872;20.658;2023-12-29T18:04:56;121.40;;;80.45;;
56435;SDS011;42335;44.872;20.658;2023-12-29T18:07:23;119.82;;;80.70;;
56435;SDS011;42335;44.872;20.658;2023-12-29T18:09:48;127.13;;;84.47;;
56435;SDS011;42335;44.872;20.658;2023-12-29T18:12:14;124.78;;;83.68;;
56435;SDS011;42335;44.872;20.658;2023-12-29T18:14:40;121.25;;;81.50;;
56435;SDS011;42335;44.872;20.658;2023-12-29T18:17:06;129.35;;;83.38;;
56435;SDS011;42335;44.872;20.658;2023-12-29T18:19:39;133.25;;;83.82;;
56435;SDS011;42335;44.872;20.658;2023-12-29T18:22:06;135.25;;;84.97;;
56435;SDS011;42335;44.872;20.658;2023-12-29T18:24:32;146.65;;;82.72;;
56435;SDS011;42335;44.872;20.658;2023-12-29T18:27:01;132.02;;;87.57;;
56435;SDS011;42335;44.872;20.658;2023-12-29T18:29:27;138.98;;;93.93;;
56435;SDS011;42335;44.872;20.658;2023-12-29T18:31:52;150.90;;;98.78;;
56435;SDS011;42335;44.872;20.658;2023-12-29T18:34:18;166.48;;;103.75;;
56435;SDS011;42335;44.872;20.658;2023-12-29T18:36:44;161.25;;;101.25;;
56435;SDS011;42335;44.872;20.658;2023-12-29T18:39:10;172.60;;;111.25;;
56435;SDS011;42335;44.872;20.658;2023-12-29T18:41:39;313.13;;;221.40;;
56435;SDS011;42335;44.872;20.658;2023-12-29T18:44:05;171.60;;;111.82;;
56435;SDS011;42335;44.872;20.658;2023-12-29T18:46:31;159.25;;;105.47;;
56435;SDS011;42335;44.872;20.658;2023-12-29T18:48:56;158.70;;;103.50;;
56435;SDS011;42335;44.872;20.658;2023-12-29T18:51:24;160.50;;;107.40;;
56435;SDS011;42335;44.872;20.658;2023-12-29T18:53:50;166.15;;;109.20;;
56435;SDS011;42335;44.872;20.658;2023-12-29T18:56:16;170.45;;;109.05;;
56435;SDS011;42335;44.872;20.658;2023-12-29T18:58:42;172.93;;;109.43;;
56435;SDS011;42335;44.872;20.658;2023-12-29T19:01:08;186.27;;;114.00;;
56435;SDS011;42335;44.872;20.658;2023-12-29T19:03:33;165.23;;;108.05;;
56435;SDS011;42335;44.872;20.658;2023-12-29T19:05:59;155.77;;;99.70;;
56435;SDS011;42335;44.872;20.658;2023-12-29T19:08:26;170.45;;;102.80;;
56435;SDS011;42335;44.872;20.658;2023-12-29T19:10:53;144.60;;;93.43;;
56435;SDS011;42335;44.872;20.658;2023-12-29T19:13:19;139.43;;;90.28;;
56435;SDS011;42335;44.872;20.658;2023-12-29T19:15:47;131.50;;;85.72;;
56435;SDS011;42335;44.872;20.658;2023-12-29T19:18:13;143.45;;;92.13;;
56435;SDS011;42335;44.872;20.658;2023-12-29T19:20:38;145.23;;;93.30;;
56435;SDS011;42335;44.872;20.658;2023-12-29T19:23:04;150.35;;;93.60;;
56435;SDS011;42335;44.872;20.658;2023-12-29T19:25:30;160.77;;;100.68;;
56435;SDS011;42335;44.872;20.658;2023-12-29T19:27:56;155.35;;;97.10;;
56435;SDS011;42335;44.872;20.658;2023-12-29T19:30:27;155.57;;;100.43;;
56435;SDS011;42335;44.872;20.658;2023-12-29T19:32:53;154.20;;;96.57;;
56435;SDS011;42335;44.872;20.658;2023-12-29T19:35:19;162.10;;;96.35;;
56435;SDS011;42335;44.872;20.658;2023-12-29T19:37:45;174.68;;;96.35;;
56435;SDS011;42335;44.872;20.658;2023-12-29T19:40:11;159.18;;;93.70;;
56435;SDS011;42335;44.872;20.658;2023-12-29T19:42:37;154.82;;;93.47;;
56435;SDS011;42335;44.872;20.658;2023-12-29T19:45:04;166.95;;;101.93;;
56435;SDS011;42335;44.872;20.658;2023-12-29T19:47:32;181.07;;;113.72;;
56435;SDS011;42335;44.872;20.658;2023-12-29T19:49:58;241.63;;;166.27;;
56435;SDS011;42335;44.872;20.658;2023-12-29T19:52:23;180.93;;;114.72;;
56435;SDS011;42335;44.872;20.658;2023-12-29T19:54:51;176.20;;;111.63;;
56435;SDS011;42335;44.872;20.658;2023-12-29T19:57:16;188.07;;;115.15;;
56435;SDS011;42335;44.872;20.658;2023-12-29T19:59:42;201.85;;;117.88;;
56435;SDS011;42335;44.872;20.658;2023-12-29T20:02:11;188.73;;;117.40;;
56435;SDS011;42335;44.872;20.658;2023-12-29T20:04:38;205.30;;;126.93;;
56435;SDS011;42335;44.872;20.658;2023-12-29T20:07:06;181.70;;;115.63;;
56435;SDS011;42335;44.872;20.658;2023-12-29T20:09:32;195.77;;;118.78;;
56435;SDS011;42335;44.872;20.658;2023-12-29T20:11:57;182.07;;;117.80;;
56435;SDS011;42335;44.872;20.658;2023-12-29T20:14:23;179.65;;;111.30;;
56435;SDS011;42335;44.872;20.658;2023-12-29T20:16:49;527.08;;;401.77;;
56435;SDS011;42335;44.872;20.658;2023-12-29T20:19:18;193.85;;;120.28;;
56435;SDS011;42335;44.872;20.658;2023-12-29T20:21:43;194.68;;;118.82;;
56435;SDS011;42335;44.872;20.658;2023-12-29T20:24:09;201.80;;;121.00;;
56435;SDS011;42335;44.872;20.658;2023-12-29T20:26:35;201.18;;;121.82;;
56435;SDS011;42335;44.872;20.658;2023-12-29T20:29:01;195.32;;;124.55;;
56435;SDS011;42335;44.872;20.658;2023-12-29T20:31:29;210.70;;;128.30;;
56435;SDS011;42335;44.872;20.658;2023-12-29T20:33:56;187.63;;;117.65;;
56435;SDS011;42335;44.872;20.658;2023-12-29T20:36:26;177.93;;;114.05;;
56435;SDS011;42335;44.872;20.658;2023-12-29T20:38:52;178.90;;;111.00;;
56435;SDS011;42335;44.872;20.658;2023-12-29T20:41:24;180.05;;;113.75;;
56435;SDS011;42335;44.872;20.658;2023-12-29T20:43:50;167.85;;;105.00;;
56435;SDS011;42335;44.872;20.658;2023-12-29T20:46:16;187.32;;;114.30;;
56435;SDS011;42335;44.872;20.658;2023-12-29T20:48:44;167.13;;;105.47;;
56435;SDS011;42335;44.872;20.658;2023-12-29T20:51:11;149.25;;;90.00;;
56435;SDS011;42335;44.872;20.658;2023-12-29T20:53:39;112.25;;;76.13;;
56435;SDS011;42335;44.872;20.658;2023-12-29T20:56:09;118.03;;;76.53;;
56435;SDS011;42335;44.872;20.658;2023-12-29T20:58:35;107.63;;;70.93;;
56435;SDS011;42335;44.872;20.658;2023-12-29T21:01:02;104.30;;;69.80;;
56435;SDS011;42335;44.872;20.658;2023-12-29T21:03:30;110.18;;;71.20;;
56435;SDS011;42335;44.872;20.658;2023-12-29T21:05:55;113.97;;;72.72;;
56435;SDS011;42335;44.872;20.658;2023-12-29T21:08:21;113.47;;;72.05;;
56435;SDS011;42335;44.872;20.658;2023-12-29T21:11:00;167.75;;;111.50;;
56435;SDS011;42335;44.872;20.658;2023-12-29T21:13:26;117.00;;;81.05;;
56435;SDS011;42335;44.872;20.658;2023-12-29T21:15:53;124.60;;;83.40;;
56435;SDS011;42335;44.872;20.658;2023-12-29T21:18:19;123.78;;;80.80;;
56435;SDS011;42335;44.872;20.658;2023-12-29T21:20:45;125.57;;;78.78;;
56435;SDS011;42335;44.872;20.658;2023-12-29T21:23:11;123.53;;;78.05;;
56435;SDS011;42335;44.872;20.658;2023-12-29T21:25:37;136.20;;;78.75;;
56435;SDS011;42335;44.872;20.658;2023-12-29T21:28:03;122.82;;;79.35;;
56435;SDS011;42335;44.872;20.658;2023-12-29T21:30:29;119.70;;;74.95;;
56435;SDS011;42335;44.872;20.658;2023-12-29T21:32:55;122.63;;;80.82;;
56435;SDS011;42335;44.872;20.658;2023-12-29T21:35:21;121.60;;;78.00;;
56435;SDS011;42335;44.872;20.658;2023-12-29T21:37:47;123.10;;;74.90;;
56435;SDS011;42335;44.872;20.658;2023-12-29T21:40:13;124.57;;;78.82;;
56435;SDS011;42335;44.872;20.658;2023-12-29T21:42:39;120.45;;;74.43;;
56435;SDS011;42335;44.872;20.658;2023-12-29T21:45:05;116.20;;;72.07;;
56435;SDS011;42335;44.872;20.658;2023-12-29T21:47:35;112.05;;;69.72;;
56435;SDS011;42335;44.872;20.658;2023-12-29T21:50:04;115.82;;;71.15;;
56435;SDS011;42335;44.872;20.658;2023-12-29T21:52:31;104.70;;;66.00;;
56435;SDS011;42335;44.872;20.658;2023-12-29T21:54:56;112.60;;;70.85;;
56435;SDS011;42335;44.872;20.658;2023-12-29T21:57:22;104.97;;;67.30;;
56435;SDS011;42335;44.872;20.658;2023-12-29T21:59:48;122.47;;;74.00;;
56435;SDS011;42335;44.872;20.658;2023-12-29T22:02:14;123.15;;;73.43;;
56435;SDS011;42335;44.872;20.658;2023-12-29T22:04:40;116.15;;;72.82;;
56435;SDS011;42335;44.872;20.658;2023-12-29T22:07:05;108.07;;;71.53;;
56435;SDS011;42335;44.872;20.658;2023-12-29T22:09:31;123.38;;;73.03;;
56435;SDS011;42335;44.872;20.658;2023-12-29T22:11:57;119.88;;;69.68;;
56435;SDS011;42335;44.872;20.658;2023-12-29T22:14:24;101.65;;;68.95;;
56435;SDS011;42335;44.872;20.658;2023-12-29T22:16:49;101.35;;;68.68;;
56435;SDS011;42335;44.872;20.658;2023-12-29T22:19:16;101.88;;;66.28;;
56435;SDS011;42335;44.872;20.658;2023-12-29T22:21:42;100.35;;;68.82;;
56435;SDS011;42335;44.872;20.658;2023-12-29T22:24:08;100.57;;;69.18;;
56435;SDS011;42335;44.872;20.658;2023-12-29T22:26:34;109.95;;;70.00;;
56435;SDS011;42335;44.872;20.658;2023-12-29T22:29:02;105.72;;;71.72;;
56435;SDS011;42335;44.872;20.658;2023-12-29T22:31:28;105.72;;;69.45;;
56435;SDS011;42335;44.872;20.658;2023-12-29T22:33:54;100.72;;;68.30;;
56435;SDS011;42335;44.872;20.658;2023-12-29T22:36:20;103.85;;;65.78;;
56435;SDS011;42335;44.872;20.658;2023-12-29T22:38:46;97.75;;;67.15;;
56435;SDS011;42335;44.872;20.658;2023-12-29T22:41:13;98.50;;;64.90;;
56435;SDS011;42335;44.872;20.658;2023-12-29T22:43:44;95.90;;;65.13;;
56435;SDS011;42335;44.872;20.658;2023-12-29T22:46:17;98.68;;;63.53;;
56435;SDS011;42335;44.872;20.658;2023-12-29T22:48:43;95.57;;;65.55;;
56435;SDS011;42335;44.872;20.658;2023-12-29T22:51:10;100.90;;;69.22;;
56435;SDS011;42335;44.872;20.658;2023-12-29T22:53:37;105.82;;;69.38;;
56435;SDS011;42335;44.872;20.658;2023-12-29T22:56:04;104.00;;;69.78;;
56435;SDS011;42335;44.872;20.658;2023-12-29T22:58:30;108.43;;;72.82;;
56435;SDS011;42335;44.872;20.658;2023-12-29T23:00:56;106.05;;;70.97;;
56435;SDS011;42335;44.872;20.658;2023-12-29T23:03:22;99.97;;;68.30;;
56435;SDS011;42335;44.872;20.658;2023-12-29T23:05:48;99.65;;;65.88;;